Terminal Aerodrome Forecast
Issued by NWS

Home | Current Version | Previous Version | Graphics & Text | Print | Product List | Glossary On
Versions: 1 2 3 4 5 6 7 8 9 10 11 12 13 14 15 16 17 18
996
FTUS41 KCLE 061522 AAB
TAFFDY
TAF AMD
KFDY 061522Z 0615/0712 25007KT 4SM BR BKN007 BKN250
     FM061700 23006KT P6SM SCT060 BKN250=

USA.gov is the U.S. government's official web portal to all federal, state and local government web resources and services.